createdAt,value
2023-05-19T00:01:28.533Z,62.50
2023-05-19T00:04:15.066Z,62.34
2023-05-19T00:07:02.432Z,62.27
2023-05-19T00:09:48.273Z,62.22
2023-05-19T00:12:35.304Z,62.10
2023-05-19T00:15:20.838Z,62.23
2023-05-19T00:18:08.400Z,62.12
2023-05-19T00:20:54.121Z,62.19
2023-05-19T00:23:39.668Z,62.27
2023-05-19T00:26:27.249Z,61.94
2023-05-19T00:29:20.802Z,61.88
2023-05-19T00:32:06.812Z,61.64
2023-05-19T00:34:52.773Z,61.48
2023-05-19T00:37:38.455Z,61.29
2023-05-19T00:40:24.448Z,61.36
2023-05-19T00:43:10.011Z,61.04
2023-05-19T00:45:56.509Z,61.04
2023-05-19T00:48:44.170Z,61.03
2023-05-19T00:51:30.797Z,61.03
2023-05-19T00:54:16.367Z,60.98
2023-05-19T00:57:05.571Z,60.96
2023-05-19T00:59:51.696Z,60.95
2023-05-19T01:02:39.328Z,60.87
2023-05-19T01:05:25.825Z,60.85
2023-05-19T01:08:11.397Z,60.61
2023-05-19T01:10:57.376Z,60.67
2023-05-19T01:13:43.527Z,60.60
2023-05-19T01:16:30.366Z,60.68
2023-05-19T01:19:36.366Z,60.49
2023-05-19T01:22:42.320Z,60.43
2023-05-19T01:25:48.304Z,60.50
2023-05-19T01:28:40.216Z,60.39
2023-05-19T01:31:27.149Z,60.17
2023-05-19T01:34:15.871Z,60.09
2023-05-19T01:37:03.115Z,60.00
2023-05-19T01:39:50.151Z,60.08
2023-05-19T01:42:39.298Z,60.08
2023-05-19T01:45:27.933Z,60.00
2023-05-19T01:48:14.835Z,59.98
2023-05-19T01:51:00.499Z,59.76
2023-05-19T01:53:45.984Z,59.91
2023-05-19T01:56:54.978Z,59.59
2023-05-19T02:00:19.309Z,59.54
2023-05-19T02:03:12.231Z,59.32
2023-05-19T02:06:19.851Z,59.25
2023-05-19T02:09:11.411Z,58.87
2023-05-19T02:12:15.420Z,58.85
2023-05-19T02:15:11.359Z,58.73
2023-05-19T02:17:59.588Z,58.67
2023-05-19T02:20:45.241Z,58.62
2023-05-19T02:23:30.831Z,58.50
2023-05-19T02:26:16.645Z,58.36
2023-05-19T02:29:02.137Z,58.33
2023-05-19T02:31:48.015Z,58.13
2023-05-19T02:34:33.609Z,58.03
2023-05-19T02:37:18.827Z,57.89
2023-05-19T02:40:05.483Z,57.72
2023-05-19T02:42:51.110Z,57.72
2023-05-19T02:45:36.702Z,57.52
2023-05-19T02:48:23.260Z,57.58
2023-05-19T02:51:08.675Z,57.46
2023-05-19T02:53:54.412Z,57.37
2023-05-19T02:56:40.109Z,57.43
2023-05-19T02:59:25.872Z,57.29
2023-05-19T03:02:12.048Z,57.24
2023-05-19T03:04:57.598Z,57.25
2023-05-19T03:07:43.141Z,57.12
2023-05-19T03:10:28.784Z,57.16
2023-05-19T03:13:14.190Z,56.88
2023-05-19T03:16:01.483Z,56.73
2023-05-19T03:18:47.266Z,56.73
2023-05-19T03:21:34.029Z,56.69
2023-05-19T03:24:19.552Z,56.55
2023-05-19T03:27:05.340Z,56.40
2023-05-19T03:29:52.294Z,56.41
2023-05-19T03:32:38.334Z,56.23
2023-05-19T03:35:24.456Z,55.92
2023-05-19T03:38:10.138Z,55.79
2023-05-19T03:40:55.736Z,55.69
2023-05-19T03:43:41.460Z,55.25
2023-05-19T03:46:28.183Z,55.20
2023-05-19T03:49:25.777Z,54.86
2023-05-19T03:52:23.023Z,54.92
2023-05-19T03:55:15.824Z,54.64
2023-05-19T03:58:02.001Z,54.34
2023-05-19T04:00:48.406Z,54.29
2023-05-19T04:03:33.737Z,54.08
2023-05-19T04:06:21.761Z,54.08
2023-05-19T04:09:13.004Z,53.88
2023-05-19T04:11:58.511Z,53.46
2023-05-19T04:14:43.752Z,53.07
2023-05-19T04:17:30.028Z,52.46
2023-05-19T04:20:16.107Z,52.06
2023-05-19T04:23:01.625Z,51.42
2023-05-19T04:25:48.159Z,51.19
2023-05-19T04:28:36.141Z,50.90
2023-05-19T04:31:21.757Z,50.61
2023-05-19T04:34:09.497Z,50.23
2023-05-19T04:36:56.214Z,50.29
2023-05-19T04:40:01.652Z,50.22
2023-05-19T04:42:49.297Z,49.53
2023-05-19T04:45:37.076Z,48.87
2023-05-19T04:48:23.684Z,48.21
2023-05-19T04:51:09.751Z,47.98
2023-05-19T04:53:55.454Z,47.64
2023-05-19T04:56:41.538Z,47.23
2023-05-19T04:59:27.150Z,47.06
2023-05-19T05:02:17.713Z,46.76
2023-05-19T05:05:03.879Z,46.50
2023-05-19T05:07:50.168Z,46.54
2023-05-19T05:10:36.184Z,46.51
2023-05-19T05:13:23.546Z,46.26
2023-05-19T05:16:09.930Z,45.82
2023-05-19T05:18:56.918Z,45.86
2023-05-19T05:21:42.731Z,45.84
2023-05-19T05:24:28.568Z,46.05
2023-05-19T05:27:17.360Z,45.92
2023-05-19T05:30:04.896Z,45.98
2023-05-19T05:32:50.891Z,45.95
2023-05-19T05:35:54.954Z,45.51
2023-05-19T05:38:40.592Z,45.47
2023-05-19T05:41:26.837Z,45.43
2023-05-19T05:44:12.805Z,45.52
2023-05-19T05:47:00.417Z,46.04
2023-05-19T05:49:48.133Z,45.83
2023-05-19T05:52:36.670Z,46.24
2023-05-19T05:55:22.870Z,46.13
2023-05-19T05:58:10.697Z,46.09
2023-05-19T06:01:00.304Z,45.49
2023-05-19T06:03:46.258Z,44.50
2023-05-19T06:06:37.453Z,44.20
2023-05-19T06:09:23.417Z,43.80
2023-05-19T06:12:10.894Z,43.04
2023-05-19T06:15:07.437Z,42.51
2023-05-19T06:17:56.204Z,42.53
2023-05-19T06:20:41.802Z,42.33
2023-05-19T06:23:28.583Z,41.55
2023-05-19T06:26:14.887Z,41.75
2023-05-19T06:29:00.627Z,41.10
2023-05-19T06:35:05.020Z,41.12
2023-05-19T06:38:06.207Z,41.54
2023-05-19T06:40:51.828Z,41.62
2023-05-19T06:43:37.590Z,40.17
2023-05-19T06:46:23.249Z,40.00
2023-05-19T06:49:10.648Z,40.65
2023-05-19T06:51:58.616Z,40.76
2023-05-19T06:54:44.727Z,40.39
2023-05-19T06:57:30.574Z,40.28
2023-05-19T07:00:19.824Z,40.19
2023-05-19T07:03:10.319Z,38.30
2023-05-19T07:05:57.085Z,37.77
2023-05-19T07:08:44.256Z,37.50
2023-05-19T07:11:30.184Z,36.18
2023-05-19T07:14:17.672Z,35.43
2023-05-19T07:17:03.970Z,35.69
2023-05-19T07:19:50.560Z,35.39
2023-05-19T07:22:36.551Z,34.92
2023-05-19T07:25:23.190Z,35.11
2023-05-19T07:28:08.884Z,35.02
2023-05-19T07:30:54.940Z,34.64
2023-05-19T07:33:40.983Z,34.50
2023-05-19T07:36:27.964Z,34.05
2023-05-19T07:39:13.945Z,34.25
2023-05-19T07:41:59.663Z,34.15
2023-05-19T07:44:45.359Z,34.37
2023-05-19T07:47:45.408Z,34.03
2023-05-19T07:50:31.985Z,33.47
2023-05-19T07:53:19.730Z,33.86
2023-05-19T07:56:05.983Z,33.80
2023-05-19T07:58:51.802Z,33.58
2023-05-19T08:01:38.970Z,33.11
2023-05-19T08:04:29.205Z,33.75
2023-05-19T08:07:15.016Z,34.19
2023-05-19T08:10:00.396Z,33.38
2023-05-19T08:12:46.988Z,33.34
2023-05-19T08:15:36.314Z,32.92
2023-05-19T08:18:28.027Z,32.72
2023-05-19T08:21:13.523Z,32.41
2023-05-19T08:24:17.522Z,33.50
2023-05-19T08:27:27.350Z,33.42
2023-05-19T08:30:12.968Z,32.94
2023-05-19T08:32:58.607Z,33.23
2023-05-19T08:35:44.503Z,33.37
2023-05-19T08:38:33.185Z,33.09
2023-05-19T08:41:22.909Z,32.49
2023-05-19T08:44:08.688Z,32.49
2023-05-19T08:46:55.613Z,32.96
2023-05-19T08:49:49.273Z,33.35
2023-05-19T08:52:46.858Z,32.93
2023-05-19T08:55:54.994Z,32.67
2023-05-19T08:58:54.248Z,32.49
2023-05-19T09:01:44.990Z,32.46
2023-05-19T09:04:31.652Z,32.49
2023-05-19T09:07:19.004Z,31.93
2023-05-19T09:10:08.351Z,32.18
2023-05-19T09:12:55.063Z,31.86
2023-05-19T09:15:42.390Z,31.28
2023-05-19T09:18:28.814Z,31.17
2023-05-19T09:21:15.105Z,31.59
2023-05-19T09:24:06.553Z,31.28
2023-05-19T09:26:57.724Z,30.38
2023-05-19T09:29:44.888Z,30.79
2023-05-19T09:32:31.034Z,30.74
2023-05-19T09:35:20.946Z,30.66
2023-05-19T09:38:10.966Z,30.32
2023-05-19T09:41:03.356Z,29.88
2023-05-19T09:43:55.752Z,29.85
2023-05-19T09:46:52.213Z,29.74
2023-05-19T09:49:48.242Z,29.92
2023-05-19T09:52:44.157Z,30.01
2023-05-19T09:55:32.761Z,30.84
2023-05-19T09:58:18.547Z,30.54
2023-05-19T10:01:04.733Z,30.33
2023-05-19T10:03:52.756Z,30.50
2023-05-19T10:06:42.080Z,30.85
2023-05-19T10:09:29.499Z,30.66
2023-05-19T10:12:17.517Z,30.46
2023-05-19T10:15:11.116Z,30.99
2023-05-19T10:17:57.112Z,30.79
2023-05-19T10:20:43.810Z,30.55
2023-05-19T10:23:29.966Z,30.01
2023-05-19T10:26:16.026Z,30.08
2023-05-19T10:29:04.554Z,30.47
2023-05-19T10:31:52.314Z,29.99
2023-05-19T10:34:49.768Z,29.32
2023-05-19T10:37:50.595Z,29.29
2023-05-19T10:40:52.930Z,29.68
2023-05-19T10:43:50.910Z,29.97
2023-05-19T10:46:37.343Z,29.74
2023-05-19T10:49:24.124Z,29.31
2023-05-19T10:52:25.272Z,28.99
2023-05-19T10:55:17.019Z,29.68
2023-05-19T10:58:03.150Z,30.50
2023-05-19T11:01:00.557Z,31.69
2023-05-19T11:03:51.525Z,31.02
2023-05-19T11:06:39.765Z,29.73
2023-05-19T11:09:37.806Z,29.91
2023-05-19T11:12:25.624Z,29.73
2023-05-19T11:15:13.341Z,29.31
2023-05-19T11:18:01.333Z,29.99
2023-05-19T11:20:57.767Z,29.65
2023-05-19T11:23:43.532Z,29.08
2023-05-19T11:26:44.647Z,28.20
2023-05-19T11:29:32.822Z,27.82
2023-05-19T11:32:21.329Z,26.75
2023-05-19T11:35:08.243Z,26.93
2023-05-19T11:37:56.952Z,28.75
2023-05-19T11:40:43.501Z,29.22
2023-05-19T11:43:29.363Z,30.16
2023-05-19T11:46:19.173Z,31.20
2023-05-19T11:49:05.247Z,31.50
2023-05-19T11:51:51.004Z,31.19
2023-05-19T11:54:38.767Z,30.65
2023-05-19T11:57:24.468Z,29.77
2023-05-19T12:00:11.964Z,30.68
2023-05-19T12:02:57.523Z,29.98
2023-05-19T12:05:45.820Z,29.02
2023-05-19T12:08:35.846Z,27.19
2023-05-19T12:11:22.888Z,26.82
2023-05-19T12:14:09.147Z,25.85
2023-05-19T12:16:55.125Z,23.99
2023-05-19T12:20:26.442Z,23.97
2023-05-19T12:23:41.001Z,24.35
2023-05-19T12:26:52.054Z,24.26
2023-05-19T12:29:52.297Z,23.83
2023-05-19T12:32:38.564Z,23.54
2023-05-19T12:35:34.171Z,23.75
2023-05-19T12:38:20.795Z,23.28
2023-05-19T12:41:07.038Z,22.30
2023-05-19T12:43:54.896Z,22.41
2023-05-19T12:46:40.457Z,21.24
2023-05-19T12:49:26.238Z,20.99
2023-05-19T12:52:13.323Z,20.92
2023-05-19T12:55:07.256Z,21.10
2023-05-19T12:57:56.460Z,20.63
2023-05-19T13:00:44.643Z,20.61
2023-05-19T13:03:30.357Z,20.57
2023-05-19T13:06:15.822Z,20.33
2023-05-19T13:09:01.076Z,19.49
2023-05-19T13:11:54.213Z,19.06
2023-05-19T13:14:42.180Z,19.14
2023-05-19T13:17:28.093Z,18.39
2023-05-19T13:20:13.892Z,18.07
2023-05-19T13:22:59.929Z,18.30
2023-05-19T13:25:50.952Z,18.85
2023-05-19T13:28:36.752Z,18.58
2023-05-19T13:31:22.764Z,18.53
2023-05-19T13:34:08.885Z,18.51
2023-05-19T13:36:55.031Z,18.56
2023-05-19T13:39:40.945Z,18.70
2023-05-19T13:42:27.501Z,18.82
2023-05-19T13:45:14.657Z,18.74
2023-05-19T13:48:02.095Z,18.87
2023-05-19T13:50:47.714Z,19.14
2023-05-19T13:53:34.103Z,19.69
2023-05-19T13:56:19.868Z,20.03
2023-05-19T13:59:05.122Z,20.63
2023-05-19T14:01:50.684Z,20.56
2023-05-19T14:04:38.296Z,20.89
2023-05-19T14:07:31.466Z,20.41
2023-05-19T14:14:14.813Z,20.31
2023-05-19T14:21:08.020Z,20.38
2023-05-19T14:23:53.417Z,20.09
2023-05-19T14:26:38.899Z,19.90
2023-05-19T14:29:24.731Z,19.82
2023-05-19T14:32:10.648Z,20.06
2023-05-19T14:34:57.959Z,19.94
2023-05-19T14:37:43.571Z,19.78
2023-05-19T14:40:29.111Z,19.67
2023-05-19T14:43:20.167Z,19.13
2023-05-19T14:46:05.745Z,19.21
2023-05-19T14:48:51.491Z,19.09
2023-05-19T14:51:39.269Z,18.70
2023-05-19T14:54:24.955Z,18.75
2023-05-19T14:57:10.702Z,18.58
2023-05-19T14:59:56.494Z,18.47
2023-05-19T15:02:41.924Z,18.17
2023-05-19T15:05:27.769Z,18.04
2023-05-19T15:08:13.574Z,18.37
2023-05-19T15:10:59.431Z,18.64
2023-05-19T15:13:46.340Z,18.71
2023-05-19T15:16:32.684Z,18.66
2023-05-19T15:19:21.117Z,18.41
2023-05-19T15:22:08.099Z,18.93
2023-05-19T15:24:56.167Z,19.85
2023-05-19T15:27:44.929Z,20.78
2023-05-19T15:30:31.976Z,21.06
2023-05-19T15:33:17.623Z,21.71
2023-05-19T15:36:05.027Z,22.94
2023-05-19T15:38:50.812Z,24.06
2023-05-19T15:41:36.435Z,24.88
2023-05-19T15:44:21.905Z,25.94
2023-05-19T15:47:07.118Z,26.85
2023-05-19T15:49:52.655Z,27.91
2023-05-19T15:52:37.964Z,28.91
2023-05-19T15:55:23.776Z,30.38
2023-05-19T15:58:09.696Z,31.44
2023-05-19T16:00:55.838Z,32.28
2023-05-19T16:03:42.952Z,32.49
2023-05-19T16:06:28.986Z,33.20
2023-05-19T16:09:14.518Z,33.78
2023-05-19T16:12:02.335Z,34.10
2023-05-19T16:14:47.601Z,34.61
2023-05-19T16:17:44.390Z,34.90
2023-05-19T16:21:06.741Z,35.63
2023-05-19T16:31:34.096Z,36.03
2023-05-19T16:34:59.394Z,36.39
2023-05-19T16:38:25.656Z,36.61
2023-05-19T16:41:50.173Z,36.93
2023-05-19T16:48:35.606Z,37.84
2023-05-19T16:51:33.420Z,38.46
2023-05-19T16:54:54.374Z,38.49
2023-05-19T16:58:10.990Z,38.68
2023-05-19T17:04:45.980Z,38.67
2023-05-19T17:08:14.711Z,38.63
2023-05-19T17:11:23.236Z,39.00
2023-05-19T17:14:15.976Z,39.33
2023-05-19T17:17:01.637Z,40.18
2023-05-19T17:19:47.902Z,40.77
2023-05-19T17:22:33.986Z,41.61
2023-05-19T17:25:19.911Z,42.27
2023-05-19T17:28:13.171Z,43.52
2023-05-19T17:31:49.416Z,44.18
2023-05-19T17:41:19.456Z,43.90
2023-05-19T17:44:06.370Z,44.32
2023-05-19T17:46:52.217Z,43.89
2023-05-19T17:50:01.781Z,43.32
2023-05-19T17:52:48.345Z,42.69
2023-05-19T17:55:35.131Z,42.29
2023-05-19T18:01:25.324Z,42.07
2023-05-19T18:11:35.978Z,41.76
2023-05-19T18:18:11.217Z,41.63
2023-05-19T18:21:13.646Z,41.47
2023-05-19T18:24:26.282Z,41.65
2023-05-19T18:27:35.672Z,41.68
2023-05-19T18:42:00.240Z,43.99
2023-05-19T18:44:55.409Z,44.25
2023-05-19T18:47:57.410Z,44.23
2023-05-19T18:54:28.367Z,44.67
2023-05-19T18:57:14.608Z,45.01
2023-05-19T19:00:03.679Z,44.99
2023-05-19T19:02:49.007Z,45.20
2023-05-19T19:05:34.852Z,45.39
2023-05-19T19:08:20.870Z,45.45
2023-05-19T19:11:10.058Z,45.37
2023-05-19T19:20:31.856Z,45.08
2023-05-19T19:23:20.139Z,45.10
2023-05-19T19:26:08.769Z,45.28
2023-05-19T19:28:55.765Z,45.36
2023-05-19T19:31:41.738Z,45.61
2023-05-19T19:35:01.112Z,45.75
2023-05-19T19:41:31.777Z,46.25
2023-05-19T19:48:41.341Z,46.57
2023-05-19T19:55:31.492Z,46.85
2023-05-19T20:01:45.570Z,47.23
2023-05-19T20:04:31.896Z,47.28
2023-05-19T20:07:20.195Z,47.46
2023-05-19T20:10:07.683Z,47.42
2023-05-19T20:12:53.174Z,47.44
2023-05-19T20:15:38.499Z,47.59
2023-05-19T20:18:25.200Z,47.78
2023-05-19T20:21:10.994Z,47.72
2023-05-19T20:23:56.420Z,47.70
2023-05-19T20:26:41.810Z,47.87
2023-05-19T20:29:27.862Z,48.03
2023-05-19T20:36:07.164Z,48.20
2023-05-19T20:43:06.136Z,48.35
2023-05-19T20:45:51.792Z,48.22
2023-05-19T20:48:37.692Z,48.27
2023-05-19T20:54:48.014Z,48.40
2023-05-19T21:01:08.417Z,48.42
2023-05-19T21:07:56.628Z,48.66
2023-05-19T21:11:01.809Z,48.86
2023-05-19T21:14:09.388Z,49.09
2023-05-19T21:20:32.304Z,49.36
2023-05-19T21:23:26.481Z,49.50
2023-05-19T21:26:12.074Z,49.51
2023-05-19T21:32:40.735Z,49.56
2023-05-19T21:35:54.026Z,49.64
2023-05-19T21:38:55.402Z,49.47
2023-05-19T21:41:41.774Z,49.44
2023-05-19T21:44:28.029Z,49.45
2023-05-19T21:51:43.041Z,49.90
2023-05-19T21:54:28.889Z,50.07
2023-05-19T21:57:14.374Z,50.37
2023-05-19T22:00:00.007Z,50.36
2023-05-19T22:03:00.872Z,50.51
2023-05-19T22:05:51.279Z,50.59
2023-05-19T22:08:36.910Z,50.50
2023-05-19T22:11:23.169Z,50.50
2023-05-19T22:14:11.463Z,50.56
2023-05-19T22:16:59.855Z,50.61
2023-05-19T22:19:47.036Z,52.33
2023-05-19T22:33:51.397Z,55.39
2023-05-19T22:39:53.319Z,56.80
2023-05-19T22:43:02.778Z,57.16
2023-05-19T22:45:48.123Z,57.42
2023-05-19T22:48:45.431Z,57.60
2023-05-19T22:51:31.454Z,57.88
2023-05-19T22:54:20.340Z,58.17
2023-05-19T22:57:05.870Z,58.40
2023-05-19T22:59:51.597Z,58.59
2023-05-19T23:06:31.049Z,58.82
2023-05-19T23:12:22.269Z,59.32
2023-05-19T23:15:17.158Z,59.40
2023-05-19T23:18:06.572Z,59.72
2023-05-19T23:24:07.046Z,60.01
2023-05-19T23:30:30.922Z,58.73
2023-05-19T23:33:16.541Z,58.31
2023-05-19T23:36:07.184Z,57.97
2023-05-19T23:38:52.876Z,57.37
2023-05-19T23:41:38.316Z,56.72
2023-05-19T23:44:23.748Z,56.77
2023-05-19T23:47:09.412Z,56.88
2023-05-19T23:49:55.073Z,56.99
2023-05-19T23:52:40.330Z,56.91
2023-05-19T23:55:25.565Z,57.38
2023-05-19T23:58:11.060Z,57.47
